sensor_id;sensor_type;location;lat;lon;timestamp;pressure;altitude;pressure_sealevel;temperature;humidity
40612;BME280;26317;44.894;20.286;2023-03-01T00:01:56;101725.63;;;5.45;100.00
40612;BME280;26317;44.894;20.286;2023-03-01T00:04:46;101727.88;;;5.48;100.00
40612;BME280;26317;44.894;20.286;2023-03-01T00:07:33;101731.16;;;5.50;100.00
40612;BME280;26317;44.894;20.286;2023-03-01T00:10:07;101701.09;;;5.30;100.00
40612;BME280;26317;44.894;20.286;2023-03-01T00:12:48;101719.88;;;5.48;100.00
40612;BME280;26317;44.894;20.286;2023-03-01T00:15:25;101730.09;;;5.58;100.00
40612;BME280;26317;44.894;20.286;2023-03-01T00:18:17;101726.00;;;5.62;100.00
40612;BME280;26317;44.894;20.286;2023-03-01T00:20:55;101729.06;;;5.66;100.00
40612;BME280;26317;44.894;20.286;2023-03-01T00:23:30;101729.25;;;5.71;100.00
40612;BME280;26317;44.894;20.286;2023-03-01T00:26:07;101730.09;;;5.71;100.00
40612;BME280;26317;44.894;20.286;2023-03-01T00:28:58;101721.88;;;5.73;100.00
40612;BME280;26317;44.894;20.286;2023-03-01T00:31:35;101721.47;;;5.76;100.00
40612;BME280;26317;44.894;20.286;2023-03-01T00:34:18;101721.25;;;5.77;100.00
40612;BME280;26317;44.894;20.286;2023-03-01T00:36:54;101708.34;;;5.74;100.00
40612;BME280;26317;44.894;20.286;2023-03-01T00:39:37;101715.31;;;5.75;100.00
40612;BME280;26317;44.894;20.286;2023-03-01T00:42:17;101710.41;;;5.72;100.00
40612;BME280;26317;44.894;20.286;2023-03-01T00:45:04;101707.97;;;5.71;100.00
40612;BME280;26317;44.894;20.286;2023-03-01T00:47:37;101702.44;;;5.66;100.00
40612;BME280;26317;44.894;20.286;2023-03-01T00:50:25;101692.03;;;5.57;100.00
40612;BME280;26317;44.894;20.286;2023-03-01T00:53:06;101688.34;;;5.59;100.00
40612;BME280;26317;44.894;20.286;2023-03-01T00:55:41;101694.50;;;5.59;100.00
40612;BME280;26317;44.894;20.286;2023-03-01T00:58:14;101661.38;;;5.35;100.00
40612;BME280;26317;44.894;20.286;2023-03-01T01:01:11;101686.75;;;5.44;100.00
40612;BME280;26317;44.894;20.286;2023-03-01T01:04:01;101684.47;;;5.48;100.00
40612;BME280;26317;44.894;20.286;2023-03-01T01:06:36;101681.38;;;5.57;100.00
40612;BME280;26317;44.894;20.286;2023-03-01T01:09:13;101682.22;;;5.58;100.00
40612;BME280;26317;44.894;20.286;2023-03-01T01:11:58;101678.91;;;5.63;100.00
40612;BME280;26317;44.894;20.286;2023-03-01T01:14:38;101664.78;;;5.55;100.00
40612;BME280;26317;44.894;20.286;2023-03-01T01:17:29;101661.50;;;5.60;100.00
40612;BME280;26317;44.894;20.286;2023-03-01T01:20:12;101656.81;;;5.55;100.00
40612;BME280;26317;44.894;20.286;2023-03-01T01:22:48;101654.38;;;5.54;100.00
40612;BME280;26317;44.894;20.286;2023-03-01T01:25:18;101648.63;;;5.57;100.00
40612;BME280;26317;44.894;20.286;2023-03-01T01:27:59;101648.81;;;5.62;100.00
40612;BME280;26317;44.894;20.286;2023-03-01T01:30:32;101642.69;;;5.62;100.00
40612;BME280;26317;44.894;20.286;2023-03-01T01:33:28;101618.59;;;5.43;100.00
40612;BME280;26317;44.894;20.286;2023-03-01T01:36:10;101637.94;;;5.64;100.00
40612;BME280;26317;44.894;20.286;2023-03-01T01:38:47;101636.97;;;5.58;100.00
40612;BME280;26317;44.894;20.286;2023-03-01T01:41:28;101634.28;;;5.65;100.00
40612;BME280;26317;44.894;20.286;2023-03-01T01:44:15;101639.41;;;5.66;100.00
40612;BME280;26317;44.894;20.286;2023-03-01T01:47:06;101612.25;;;5.51;100.00
40612;BME280;26317;44.894;20.286;2023-03-01T01:49:48;101634.47;;;5.70;100.00
40612;BME280;26317;44.894;20.286;2023-03-01T01:52:29;101614.25;;;5.55;100.00
40612;BME280;26317;44.894;20.286;2023-03-01T01:55:16;101625.06;;;5.61;100.00
40612;BME280;26317;44.894;20.286;2023-03-01T01:57:54;101617.09;;;5.67;100.00
40612;BME280;26317;44.894;20.286;2023-03-01T02:00:33;101625.06;;;5.61;100.00
40612;BME280;26317;44.894;20.286;2023-03-01T02:03:13;101624.66;;;5.64;100.00
40612;BME280;26317;44.894;20.286;2023-03-01T02:06:05;101625.06;;;5.61;100.00
40612;BME280;26317;44.894;20.286;2023-03-01T02:08:48;101621.78;;;5.65;100.00
40612;BME280;26317;44.894;20.286;2023-03-01T02:11:31;101620.97;;;5.65;100.00
40612;BME280;26317;44.894;20.286;2023-03-01T02:14:12;101620.97;;;5.65;100.00
40612;BME280;26317;44.894;20.286;2023-03-01T02:16:52;101619.94;;;5.66;100.00
40612;BME280;26317;44.894;20.286;2023-03-01T02:19:43;101613.81;;;5.65;100.00
40612;BME280;26317;44.894;20.286;2023-03-01T02:22:40;101605.22;;;5.63;100.00
40612;BME280;26317;44.894;20.286;2023-03-01T02:25:43;101604.41;;;5.63;100.00
40612;BME280;26317;44.894;20.286;2023-03-01T02:28:38;101593.53;;;5.64;100.00
40612;BME280;26317;44.894;20.286;2023-03-01T02:31:30;101602.16;;;5.60;100.00
40612;BME280;26317;44.894;20.286;2023-03-01T02:34:33;101582.72;;;5.59;100.00
40612;BME280;26317;44.894;20.286;2023-03-01T02:37:11;101593.34;;;5.66;100.00
40612;BME280;26317;44.894;20.286;2023-03-01T02:40:04;101583.13;;;5.63;100.00
40612;BME280;26317;44.894;20.286;2023-03-01T02:42:50;101583.69;;;5.65;100.00
40612;BME280;26317;44.894;20.286;2023-03-01T02:45:32;101583.31;;;5.68;100.00
40612;BME280;26317;44.894;20.286;2023-03-01T02:48:19;101588.19;;;5.71;100.00
40612;BME280;26317;44.894;20.286;2023-03-01T02:51:04;101582.88;;;5.71;100.00
40612;BME280;26317;44.894;20.286;2023-03-01T02:53:53;101578.13;;;5.73;100.00
40612;BME280;26317;44.894;20.286;2023-03-01T02:56:32;101577.38;;;5.66;100.00
40612;BME280;26317;44.894;20.286;2023-03-01T02:59:10;101581.44;;;5.68;100.00
40612;BME280;26317;44.894;20.286;2023-03-01T03:01:54;101562.22;;;5.60;100.00
40612;BME280;26317;44.894;20.286;2023-03-01T03:04:36;101583.69;;;5.71;100.00
40612;BME280;26317;44.894;20.286;2023-03-01T03:07:10;101576.53;;;5.72;100.00
40612;BME280;26317;44.894;20.286;2023-03-01T03:09:52;101565.44;;;5.75;100.00
40612;BME280;26317;44.894;20.286;2023-03-01T03:12:33;101564.25;;;5.71;100.00
40612;BME280;26317;44.894;20.286;2023-03-01T03:15:11;101572.81;;;5.73;100.00
40612;BME280;26317;44.894;20.286;2023-03-01T03:17:54;101566.47;;;5.74;100.00
40612;BME280;26317;44.894;20.286;2023-03-01T03:20:32;101563.38;;;5.77;100.00
40612;BME280;26317;44.894;20.286;2023-03-01T03:23:07;101561.34;;;5.72;100.00
40612;BME280;26317;44.894;20.286;2023-03-01T03:26:07;101564.63;;;5.74;100.00
40612;BME280;26317;44.894;20.286;2023-03-01T03:28:41;101555.22;;;5.72;100.00
40612;BME280;26317;44.894;20.286;2023-03-01T03:31:27;101558.91;;;5.71;100.00
40612;BME280;26317;44.894;20.286;2023-03-01T03:34:05;101564.69;;;5.68;100.00
40612;BME280;26317;44.894;20.286;2023-03-01T03:36:56;101562.41;;;5.65;100.00
40612;BME280;26317;44.894;20.286;2023-03-01T03:39:29;101562.81;;;5.68;100.00
40612;BME280;26317;44.894;20.286;2023-03-01T03:42:16;101558.13;;;5.64;100.00
40612;BME280;26317;44.894;20.286;2023-03-01T03:45:07;101563.44;;;5.64;100.00
40612;BME280;26317;44.894;20.286;2023-03-01T03:47:51;101520.19;;;5.37;100.00
40612;BME280;26317;44.894;20.286;2023-03-01T03:50:39;101554.88;;;5.62;100.00
40612;BME280;26317;44.894;20.286;2023-03-01T03:53:15;101557.31;;;5.63;100.00
40612;BME280;26317;44.894;20.286;2023-03-01T03:55:54;101561.78;;;5.69;100.00
40612;BME280;26317;44.894;20.286;2023-03-01T03:58:37;101557.09;;;5.65;100.00
40612;BME280;26317;44.894;20.286;2023-03-01T04:01:14;101562.59;;;5.70;100.00
40612;BME280;26317;44.894;20.286;2023-03-01T04:03:44;101559.75;;;5.65;100.00
40612;BME280;26317;44.894;20.286;2023-03-01T04:06:18;101561.78;;;5.69;100.00
40612;BME280;26317;44.894;20.286;2023-03-01T04:09:03;101560.13;;;5.68;100.00
40612;BME280;26317;44.894;20.286;2023-03-01T04:11:36;101553.41;;;5.66;100.00
40612;BME280;26317;44.894;20.286;2023-03-01T04:14:11;101559.94;;;5.70;100.00
40612;BME280;26317;44.894;20.286;2023-03-01T04:16:44;101559.75;;;5.71;100.00
40612;BME280;26317;44.894;20.286;2023-03-01T04:19:20;101551.13;;;5.69;100.00
40612;BME280;26317;44.894;20.286;2023-03-01T04:22:07;101551.59;;;5.60;100.00
40612;BME280;26317;44.894;20.286;2023-03-01T04:24:50;101552.78;;;5.64;100.00
40612;BME280;26317;44.894;20.286;2023-03-01T04:27:27;101560.00;;;5.63;100.00
40612;BME280;26317;44.894;20.286;2023-03-01T04:30:18;101560.13;;;5.68;100.00
40612;BME280;26317;44.894;20.286;2023-03-01T04:33:02;101562.78;;;5.75;100.00
40612;BME280;26317;44.894;20.286;2023-03-01T04:35:39;101539.28;;;5.65;100.00
40612;BME280;26317;44.894;20.286;2023-03-01T04:38:29;101554.38;;;5.78;100.00
40612;BME280;26317;44.894;20.286;2023-03-01T04:41:11;101554.75;;;5.81;100.00
40612;BME280;26317;44.894;20.286;2023-03-01T04:43:46;101544.09;;;5.81;100.00
40612;BME280;26317;44.894;20.286;2023-03-01T04:46:30;101545.78;;;5.76;100.00
40612;BME280;26317;44.894;20.286;2023-03-01T04:49:03;101538.44;;;5.71;100.00
40612;BME280;26317;44.894;20.286;2023-03-01T04:51:40;101551.25;;;5.81;100.00
40612;BME280;26317;44.894;20.286;2023-03-01T04:54:36;101548.03;;;5.79;100.00
40612;BME280;26317;44.894;20.286;2023-03-01T04:57:15;101546.19;;;5.79;100.00
40612;BME280;26317;44.894;20.286;2023-03-01T04:59:52;101549.00;;;5.84;100.00
40612;BME280;26317;44.894;20.286;2023-03-01T05:02:28;101554.09;;;5.86;100.00
40612;BME280;26317;44.894;20.286;2023-03-01T05:05:03;101554.34;;;5.84;100.00
40612;BME280;26317;44.894;20.286;2023-03-01T05:07:36;101552.69;;;5.90;100.00
40612;BME280;26317;44.894;20.286;2023-03-01T05:10:34;101537.38;;;5.79;100.00
40612;BME280;26317;44.894;20.286;2023-03-01T05:13:09;101558.63;;;5.92;100.00
40612;BME280;26317;44.894;20.286;2023-03-01T05:15:49;101556.78;;;5.92;100.00
40612;BME280;26317;44.894;20.286;2023-03-01T05:18:35;101558.34;;;6.00;100.00
40612;BME280;26317;44.894;20.286;2023-03-01T05:21:16;101555.06;;;5.98;100.00
40612;BME280;26317;44.894;20.286;2023-03-01T05:23:50;101507.31;;;5.72;100.00
40612;BME280;26317;44.894;20.286;2023-03-01T05:26:47;101555.47;;;6.01;100.00
40612;BME280;26317;44.894;20.286;2023-03-01T05:29:23;101552.59;;;6.03;100.00
40612;BME280;26317;44.894;20.286;2023-03-01T05:34:45;101527.91;;;5.89;100.00
40612;BME280;26317;44.894;20.286;2023-03-01T05:37:39;101550.53;;;6.05;100.00
40612;BME280;26317;44.894;20.286;2023-03-01T05:40:20;101561.56;;;6.09;100.00
40612;BME280;26317;44.894;20.286;2023-03-01T05:43:01;101550.94;;;6.02;100.00
40612;BME280;26317;44.894;20.286;2023-03-01T05:45:39;101551.84;;;5.96;100.00
40612;BME280;26317;44.894;20.286;2023-03-01T05:48:15;101555.47;;;6.01;100.00
40612;BME280;26317;44.894;20.286;2023-03-01T05:50:52;101550.56;;;5.98;100.00
40612;BME280;26317;44.894;20.286;2023-03-01T05:53:35;101555.50;;;5.95;100.00
40612;BME280;26317;44.894;20.286;2023-03-01T05:56:18;101554.66;;;6.01;100.00
40612;BME280;26317;44.894;20.286;2023-03-01T05:58:54;101554.25;;;5.97;100.00
40612;BME280;26317;44.894;20.286;2023-03-01T06:01:30;101551.38;;;5.99;100.00
40612;BME280;26317;44.894;20.286;2023-03-01T06:04:03;101544.59;;;6.03;100.00
40612;BME280;26317;44.894;20.286;2023-03-01T06:06:45;101550.53;;;6.05;100.00
40612;BME280;26317;44.894;20.286;2023-03-01T06:09:16;101546.81;;;6.06;100.00
40612;BME280;26317;44.894;20.286;2023-03-01T06:12:00;101548.84;;;6.11;100.00
40612;BME280;26317;44.894;20.286;2023-03-01T06:14:49;101486.03;;;5.72;100.00
40612;BME280;26317;44.894;20.286;2023-03-01T06:17:29;101531.91;;;6.05;100.00
40612;BME280;26317;44.894;20.286;2023-03-01T06:20:15;101541.28;;;6.08;100.00
40612;BME280;26317;44.894;20.286;2023-03-01T06:22:50;101549.22;;;6.14;100.00
40612;BME280;26317;44.894;20.286;2023-03-01T06:25:26;101549.41;;;6.19;100.00
40612;BME280;26317;44.894;20.286;2023-03-01T06:28:01;101539.00;;;6.11;100.00
40612;BME280;26317;44.894;20.286;2023-03-01T06:30:47;101532.88;;;6.11;100.00
40612;BME280;26317;44.894;20.286;2023-03-01T06:33:26;101564.25;;;6.33;100.00
40612;BME280;26317;44.894;20.286;2023-03-01T06:36:02;101561.75;;;6.38;100.00
40612;BME280;26317;44.894;20.286;2023-03-01T06:38:36;101567.88;;;6.39;100.00
40612;BME280;26317;44.894;20.286;2023-03-01T06:41:17;101554.16;;;6.42;100.00
40612;BME280;26317;44.894;20.286;2023-03-01T06:43:59;101548.16;;;6.46;100.00
40612;BME280;26317;44.894;20.286;2023-03-01T06:46:44;101553.03;;;6.50;100.00
40612;BME280;26317;44.894;20.286;2023-03-01T06:49:24;101552.38;;;6.54;100.00
40612;BME280;26317;44.894;20.286;2023-03-01T06:52:01;101563.44;;;6.58;100.00
40612;BME280;26317;44.894;20.286;2023-03-01T06:54:43;101556.00;;;6.60;100.00
40612;BME280;26317;44.894;20.286;2023-03-01T06:57:18;101551.66;;;6.65;100.00
40612;BME280;26317;44.894;20.286;2023-03-01T06:59:59;101557.38;;;6.69;100.00
40612;BME280;26317;44.894;20.286;2023-03-01T07:02:35;101548.13;;;6.71;100.00
40612;BME280;26317;44.894;20.286;2023-03-01T07:05:14;101556.50;;;6.75;100.00
40612;BME280;26317;44.894;20.286;2023-03-01T07:07:55;101543.38;;;6.73;100.00
40612;BME280;26317;44.894;20.286;2023-03-01T07:10:40;101547.41;;;6.82;100.00
40612;BME280;26317;44.894;20.286;2023-03-01T07:13:20;101547.75;;;6.86;100.00
40612;BME280;26317;44.894;20.286;2023-03-01T07:16:00;101553.47;;;6.89;100.00
40612;BME280;26317;44.894;20.286;2023-03-01T07:18:57;101534.44;;;6.86;100.00
40612;BME280;26317;44.894;20.286;2023-03-01T07:21:40;101552.66;;;6.89;100.00
40612;BME280;26317;44.894;20.286;2023-03-01T07:24:20;101551.41;;;6.91;100.00
40612;BME280;26317;44.894;20.286;2023-03-01T07:27:06;101547.75;;;6.86;100.00
40612;BME280;26317;44.894;20.286;2023-03-01T07:29:49;101545.91;;;6.86;100.00
40612;BME280;26317;44.894;20.286;2023-03-01T07:32:26;101530.00;;;6.80;100.00
40612;BME280;26317;44.894;20.286;2023-03-01T07:35:08;101544.44;;;6.90;100.00
40612;BME280;26317;44.894;20.286;2023-03-01T07:37:59;101549.72;;;6.97;100.00
40612;BME280;26317;44.894;20.286;2023-03-01T07:40:38;101534.78;;;6.89;100.00
40612;BME280;26317;44.894;20.286;2023-03-01T07:43:14;101552.50;;;7.02;100.00
40612;BME280;26317;44.894;20.286;2023-03-01T07:46:07;101546.16;;;7.03;100.00
40612;BME280;26317;44.894;20.286;2023-03-01T07:48:40;101549.13;;;7.13;100.00
40612;BME280;26317;44.894;20.286;2023-03-01T07:51:26;101525.47;;;6.99;100.00
40612;BME280;26317;44.894;20.286;2023-03-01T07:54:24;101549.47;;;7.17;100.00
40612;BME280;26317;44.894;20.286;2023-03-01T07:56:59;101549.84;;;7.20;100.00
40612;BME280;26317;44.894;20.286;2023-03-01T07:59:45;101528.19;;;7.10;100.00
40612;BME280;26317;44.894;20.286;2023-03-01T08:02:35;101538.72;;;7.23;100.00
40612;BME280;26317;44.894;20.286;2023-03-01T08:05:16;101534.19;;;7.24;100.00
40612;BME280;26317;44.894;20.286;2023-03-01T08:07:58;101517.84;;;7.20;100.00
40612;BME280;26317;44.894;20.286;2023-03-01T08:10:33;101535.69;;;7.38;100.00
40612;BME280;26317;44.894;20.286;2023-03-01T08:13:07;101537.69;;;7.43;100.00
40612;BME280;26317;44.894;20.286;2023-03-01T08:15:51;101538.84;;;7.47;100.00
40612;BME280;26317;44.894;20.286;2023-03-01T08:18:31;101528.19;;;7.47;100.00
40612;BME280;26317;44.894;20.286;2023-03-01T08:21:08;101539.56;;;7.54;100.00
40612;BME280;26317;44.894;20.286;2023-03-01T08:23:57;101527.25;;;7.53;100.00
40612;BME280;26317;44.894;20.286;2023-03-01T08:26:33;101528.56;;;7.62;100.00
40612;BME280;26317;44.894;20.286;2023-03-01T08:29:08;101509.44;;;7.65;100.00
40612;BME280;26317;44.894;20.286;2023-03-01T08:31:42;101515.50;;;7.72;100.00
40612;BME280;26317;44.894;20.286;2023-03-01T08:34:19;101527.47;;;7.81;100.00
40612;BME280;26317;44.894;20.286;2023-03-01T08:36:56;101489.44;;;7.56;98.27
40612;BME280;26317;44.894;20.286;2023-03-01T08:39:43;101522.84;;;7.76;97.41
40612;BME280;26317;44.894;20.286;2023-03-01T08:42:19;101523.06;;;7.75;97.90
40612;BME280;26317;44.894;20.286;2023-03-01T08:44:58;101524.72;;;7.88;96.34
40612;BME280;26317;44.894;20.286;2023-03-01T08:47:32;101523.69;;;8.00;95.92
40612;BME280;26317;44.894;20.286;2023-03-01T08:50:16;101520.69;;;8.08;95.69
40612;BME280;26317;44.894;20.286;2023-03-01T08:52:55;101505.69;;;8.07;95.39
40612;BME280;26317;44.894;20.286;2023-03-01T08:55:39;101505.16;;;8.17;94.99
40612;BME280;26317;44.894;20.286;2023-03-01T08:58:12;101511.34;;;8.29;94.04
40612;BME280;26317;44.894;20.286;2023-03-01T09:00:52;101509.09;;;8.26;94.00
40612;BME280;26317;44.894;20.286;2023-03-01T09:03:57;101508.84;;;8.27;92.69
40612;BME280;26317;44.894;20.286;2023-03-01T09:06:37;101514.34;;;8.32;91.97
40612;BME280;26317;44.894;20.286;2023-03-01T09:09:22;101520.31;;;8.35;92.05
40612;BME280;26317;44.894;20.286;2023-03-01T09:12:02;101509.69;;;8.28;91.95
40612;BME280;26317;44.894;20.286;2023-03-01T09:14:35;101519.13;;;8.30;90.63
40612;BME280;26317;44.894;20.286;2023-03-01T09:17:11;101510.72;;;8.27;90.19
40612;BME280;26317;44.894;20.286;2023-03-01T09:19:56;101514.84;;;8.29;89.90
40612;BME280;26317;44.894;20.286;2023-03-01T09:22:39;101492.47;;;8.12;89.10
40612;BME280;26317;44.894;20.286;2023-03-01T09:25:18;101512.28;;;8.35;89.92
40612;BME280;26317;44.894;20.286;2023-03-01T09:27:58;101507.38;;;8.31;90.57
40612;BME280;26317;44.894;20.286;2023-03-01T09:30:33;101520.66;;;8.38;89.43
40612;BME280;26317;44.894;20.286;2023-03-01T09:33:09;101518.78;;;8.39;88.71
40612;BME280;26317;44.894;20.286;2023-03-01T09:35:57;101504.47;;;8.45;88.72
40612;BME280;26317;44.894;20.286;2023-03-01T09:38:35;101500.91;;;8.51;89.19
40612;BME280;26317;44.894;20.286;2023-03-01T09:41:31;101490.66;;;8.59;89.83
40612;BME280;26317;44.894;20.286;2023-03-01T09:44:47;101474.81;;;8.69;90.00
40612;BME280;26317;44.894;20.286;2023-03-01T09:47:41;101474.22;;;8.79;90.27
40612;BME280;26317;44.894;20.286;2023-03-01T09:50:18;101479.66;;;8.96;89.68
40612;BME280;26317;44.894;20.286;2023-03-01T09:53:01;101472.06;;;9.04;89.77
40612;BME280;26317;44.894;20.286;2023-03-01T09:55:39;101482.03;;;9.20;88.51
40612;BME280;26317;44.894;20.286;2023-03-01T09:58:48;101468.75;;;9.26;87.34
40612;BME280;26317;44.894;20.286;2023-03-01T10:01:45;101470.53;;;9.37;86.50
40612;BME280;26317;44.894;20.286;2023-03-01T10:04:43;101466.66;;;9.44;85.23
40612;BME280;26317;44.894;20.286;2023-03-01T10:07:36;101463.66;;;9.41;84.63
40612;BME280;26317;44.894;20.286;2023-03-01T10:10:26;101454.69;;;9.47;84.88
40612;BME280;26317;44.894;20.286;2023-03-01T10:13:15;101444.94;;;9.57;84.07
40612;BME280;26317;44.894;20.286;2023-03-01T10:15:56;101432.06;;;9.71;85.07
40612;BME280;26317;44.894;20.286;2023-03-01T10:18:46;101424.84;;;9.88;84.74
40612;BME280;26317;44.894;20.286;2023-03-01T10:21:27;101413.44;;;9.98;84.23
40612;BME280;26317;44.894;20.286;2023-03-01T10:24:12;101418.59;;;10.16;83.49
40612;BME280;26317;44.894;20.286;2023-03-01T10:27:03;101419.94;;;10.35;83.17
40612;BME280;26317;44.894;20.286;2023-03-01T10:29:53;101421.63;;;10.41;82.63
40612;BME280;26317;44.894;20.286;2023-03-01T10:32:29;101416.47;;;10.56;82.94
40612;BME280;26317;44.894;20.286;2023-03-01T10:35:25;101415.53;;;10.68;81.75
40612;BME280;26317;44.894;20.286;2023-03-01T10:38:12;101415.47;;;10.63;80.58
40612;BME280;26317;44.894;20.286;2023-03-01T10:40:53;101410.31;;;10.56;80.83
40612;BME280;26317;44.894;20.286;2023-03-01T10:43:45;101408.53;;;10.45;80.46
40612;BME280;26317;44.894;20.286;2023-03-01T10:46:32;101411.66;;;10.37;81.29
40612;BME280;26317;44.894;20.286;2023-03-01T10:49:17;101399.28;;;10.36;81.83
40612;BME280;26317;44.894;20.286;2023-03-01T10:52:11;101392.63;;;10.38;81.88
40612;BME280;26317;44.894;20.286;2023-03-01T10:54:57;101384.22;;;10.30;80.05
40612;BME280;26317;44.894;20.286;2023-03-01T10:57:39;101391.19;;;10.31;82.17
40612;BME280;26317;44.894;20.286;2023-03-01T11:00:25;101387.13;;;10.28;81.65
40612;BME280;26317;44.894;20.286;2023-03-01T11:03:13;101391.50;;;10.34;80.90
40612;BME280;26317;44.894;20.286;2023-03-01T11:05:58;101385.94;;;10.41;80.55
40612;BME280;26317;44.894;20.286;2023-03-01T11:08:44;101390.03;;;10.43;80.73
40612;BME280;26317;44.894;20.286;2023-03-01T11:11:30;101386.25;;;10.44;80.26
40612;BME280;26317;44.894;20.286;2023-03-01T11:14:23;101379.34;;;10.27;78.92
40612;BME280;26317;44.894;20.286;2023-03-01T11:17:10;101380.91;;;10.23;80.54
40612;BME280;26317;44.894;20.286;2023-03-01T11:20:18;101376.31;;;10.23;81.86
40612;BME280;26317;44.894;20.286;2023-03-01T11:23:16;101363.25;;;10.27;78.63
40612;BME280;26317;44.894;20.286;2023-03-01T11:25:56;101351.72;;;10.26;78.99
40612;BME280;26317;44.894;20.286;2023-03-01T11:28:42;101361.19;;;10.34;79.67
40612;BME280;26317;44.894;20.286;2023-03-01T11:31:23;101358.31;;;10.62;80.91
40612;BME280;26317;44.894;20.286;2023-03-01T11:34:06;101339.09;;;10.70;78.07
40612;BME280;26317;44.894;20.286;2023-03-01T11:36:51;101345.13;;;10.82;76.97
40612;BME280;26317;44.894;20.286;2023-03-01T11:39:37;101352.25;;;10.93;75.06
40612;BME280;26317;44.894;20.286;2023-03-01T11:42:25;101339.31;;;10.90;74.91
40612;BME280;26317;44.894;20.286;2023-03-01T11:45:11;101346.41;;;11.01;75.42
40612;BME280;26317;44.894;20.286;2023-03-01T11:48:05;101337.75;;;10.94;74.95
40612;BME280;26317;44.894;20.286;2023-03-01T11:50:44;101329.97;;;10.98;76.27
40612;BME280;26317;44.894;20.286;2023-03-01T11:54:13;101321.44;;;11.01;75.60
40612;BME280;26317;44.894;20.286;2023-03-01T11:57:13;101328.69;;;11.00;75.01
40612;BME280;26317;44.894;20.286;2023-03-01T12:00:31;101324.06;;;10.96;75.86
40612;BME280;26317;44.894;20.286;2023-03-01T12:03:44;101325.41;;;10.93;75.35
40612;BME280;26317;44.894;20.286;2023-03-01T12:06:50;101324.28;;;10.89;74.99
40612;BME280;26317;44.894;20.286;2023-03-01T12:09:47;101310.59;;;10.91;75.95
40612;BME280;26317;44.894;20.286;2023-03-01T12:12:58;101313.03;;;10.92;75.70
40612;BME280;26317;44.894;20.286;2023-03-01T12:15:58;101308.84;;;11.01;77.20
40612;BME280;26317;44.894;20.286;2023-03-01T12:19:01;101307.28;;;11.11;77.75
40612;BME280;26317;44.894;20.286;2023-03-01T12:22:15;101295.03;;;11.20;75.32
40612;BME280;26317;44.894;20.286;2023-03-01T12:25:18;101307.97;;;11.28;74.86
40612;BME280;26317;44.894;20.286;2023-03-01T12:28:19;101306.91;;;11.29;75.53
40612;BME280;26317;44.894;20.286;2023-03-01T12:38:05;101301.41;;;11.45;73.75
40612;BME280;26317;44.894;20.286;2023-03-01T12:41:06;101294.22;;;11.51;75.55
40612;BME280;26317;44.894;20.286;2023-03-01T12:44:11;101284.31;;;11.62;75.02
40612;BME280;26317;44.894;20.286;2023-03-01T12:47:19;101287.03;;;11.67;73.48
40612;BME280;26317;44.894;20.286;2023-03-01T12:50:03;101299.13;;;11.64;73.73
40612;BME280;26317;44.894;20.286;2023-03-01T12:52:50;101293.38;;;11.50;72.49
40612;BME280;26317;44.894;20.286;2023-03-01T12:56:06;101289.31;;;11.48;75.25
40612;BME280;26317;44.894;20.286;2023-03-01T12:58:59;101293.91;;;11.47;74.15
40612;BME280;26317;44.894;20.286;2023-03-01T13:01:42;101286.97;;;11.57;73.75
40612;BME280;26317;44.894;20.286;2023-03-01T13:04:43;101281.59;;;11.57;72.26
40612;BME280;26317;44.894;20.286;2023-03-01T13:07:43;101283.78;;;11.60;74.00
40612;BME280;26317;44.894;20.286;2023-03-01T13:10:43;101266.56;;;11.61;73.33
40612;BME280;26317;44.894;20.286;2023-03-01T13:13:28;101240.56;;;11.66;74.18
40612;BME280;26317;44.894;20.286;2023-03-01T13:19:25;101238.09;;;12.12;72.79
40612;BME280;26317;44.894;20.286;2023-03-01T13:21:56;101236.28;;;12.27;73.48
40612;BME280;26317;44.894;20.286;2023-03-01T13:24:37;101235.50;;;12.37;72.88
40612;BME280;26317;44.894;20.286;2023-03-01T13:27:30;101237.38;;;12.36;70.65
40612;BME280;26317;44.894;20.286;2023-03-01T13:33:46;101231.66;;;12.13;71.94
40612;BME280;26317;44.894;20.286;2023-03-01T13:36:47;101237.00;;;12.03;71.31
40612;BME280;26317;44.894;20.286;2023-03-01T13:39:30;101225.66;;;11.90;70.85
40612;BME280;26317;44.894;20.286;2023-03-01T13:42:45;101219.69;;;11.78;71.07
40612;BME280;26317;44.894;20.286;2023-03-01T13:45:38;101225.59;;;11.75;71.44
40612;BME280;26317;44.894;20.286;2023-03-01T13:48:24;101218.34;;;11.76;71.37
40612;BME280;26317;44.894;20.286;2023-03-01T13:50:59;101224.00;;;11.79;72.31
40612;BME280;26317;44.894;20.286;2023-03-01T13:53:42;101215.41;;;11.82;71.82
40612;BME280;26317;44.894;20.286;2023-03-01T13:56:33;101203.41;;;12.05;72.36
40612;BME280;26317;44.894;20.286;2023-03-01T13:59:32;101218.78;;;12.20;70.68
40612;BME280;26317;44.894;20.286;2023-03-01T14:02:19;101209.66;;;12.36;70.01
40612;BME280;26317;44.894;20.286;2023-03-01T14:05:00;101201.88;;;12.34;68.42
40612;BME280;26317;44.894;20.286;2023-03-01T14:07:35;101205.34;;;12.25;68.37
40612;BME280;26317;44.894;20.286;2023-03-01T14:10:35;101170.59;;;12.08;68.59
40612;BME280;26317;44.894;20.286;2023-03-01T14:13:41;101200.47;;;12.17;68.77
40612;BME280;26317;44.894;20.286;2023-03-01T14:16:34;101188.66;;;12.18;69.18
40612;BME280;26317;44.894;20.286;2023-03-01T14:19:20;101187.28;;;12.15;68.47
40612;BME280;26317;44.894;20.286;2023-03-01T14:22:14;101188.09;;;12.16;69.07
40612;BME280;26317;44.894;20.286;2023-03-01T14:24:55;101193.75;;;12.14;68.51
40612;BME280;26317;44.894;20.286;2023-03-01T14:27:36;101195.06;;;12.07;68.17